sensor_id;sensor_type;location;lat;lon;timestamp;P1;durP1;ratioP1;P2;durP2;ratioP2
9106;SDS011;4589;48.690;8.952;2024-02-14T00:00:35;9.05;;;7.03;;
9106;SDS011;4589;48.690;8.952;2024-02-14T00:03:01;12.70;;;7.90;;
9106;SDS011;4589;48.690;8.952;2024-02-14T00:05:28;15.02;;;8.70;;
9106;SDS011;4589;48.690;8.952;2024-02-14T00:07:54;13.02;;;8.05;;
9106;SDS011;4589;48.690;8.952;2024-02-14T00:10:20;14.13;;;8.50;;
9106;SDS011;4589;48.690;8.952;2024-02-14T00:12:46;12.60;;;8.55;;
9106;SDS011;4589;48.690;8.952;2024-02-14T00:15:13;12.68;;;8.20;;
9106;SDS011;4589;48.690;8.952;2024-02-14T00:17:39;15.13;;;8.90;;
9106;SDS011;4589;48.690;8.952;2024-02-14T00:20:05;19.35;;;10.32;;
9106;SDS011;4589;48.690;8.952;2024-02-14T00:22:31;17.48;;;9.07;;
9106;SDS011;4589;48.690;8.952;2024-02-14T00:24:59;13.68;;;9.50;;
9106;SDS011;4589;48.690;8.952;2024-02-14T00:27:25;17.50;;;10.02;;
9106;SDS011;4589;48.690;8.952;2024-02-14T00:29:52;12.50;;;8.45;;
9106;SDS011;4589;48.690;8.952;2024-02-14T00:32:19;11.25;;;8.48;;
9106;SDS011;4589;48.690;8.952;2024-02-14T00:34:45;15.03;;;9.03;;
9106;SDS011;4589;48.690;8.952;2024-02-14T00:37:11;12.30;;;9.37;;
9106;SDS011;4589;48.690;8.952;2024-02-14T00:39:37;13.98;;;9.30;;
9106;SDS011;4589;48.690;8.952;2024-02-14T00:42:03;20.07;;;9.00;;
9106;SDS011;4589;48.690;8.952;2024-02-14T00:44:30;16.35;;;8.57;;
9106;SDS011;4589;48.690;8.952;2024-02-14T00:46:57;11.27;;;8.17;;
9106;SDS011;4589;48.690;8.952;2024-02-14T00:49:27;13.83;;;7.87;;
9106;SDS011;4589;48.690;8.952;2024-02-14T00:51:53;18.70;;;8.67;;
9106;SDS011;4589;48.690;8.952;2024-02-14T00:54:20;15.50;;;9.00;;
9106;SDS011;4589;48.690;8.952;2024-02-14T00:56:46;11.13;;;7.43;;
9106;SDS011;4589;48.690;8.952;2024-02-14T00:59:12;11.70;;;7.77;;
9106;SDS011;4589;48.690;8.952;2024-02-14T01:01:38;11.63;;;8.20;;
9106;SDS011;4589;48.690;8.952;2024-02-14T01:04:05;11.17;;;8.40;;
9106;SDS011;4589;48.690;8.952;2024-02-14T01:06:32;16.90;;;7.83;;
9106;SDS011;4589;48.690;8.952;2024-02-14T01:09:15;10.20;;;7.75;;
9106;SDS011;4589;48.690;8.952;2024-02-14T01:11:47;11.97;;;7.27;;
9106;SDS011;4589;48.690;8.952;2024-02-14T01:14:38;10.70;;;7.90;;
9106;SDS011;4589;48.690;8.952;2024-02-14T01:17:13;11.27;;;8.00;;
9106;SDS011;4589;48.690;8.952;2024-02-14T01:19:39;12.10;;;7.73;;
9106;SDS011;4589;48.690;8.952;2024-02-14T01:22:06;14.57;;;8.40;;
9106;SDS011;4589;48.690;8.952;2024-02-14T01:24:33;15.30;;;7.47;;
9106;SDS011;4589;48.690;8.952;2024-02-14T01:26:59;17.70;;;8.80;;
9106;SDS011;4589;48.690;8.952;2024-02-14T01:29:26;10.33;;;7.37;;
9106;SDS011;4589;48.690;8.952;2024-02-14T01:31:52;9.97;;;8.00;;
9106;SDS011;4589;48.690;8.952;2024-02-14T01:34:20;14.83;;;8.17;;
9106;SDS011;4589;48.690;8.952;2024-02-14T01:36:46;11.73;;;9.27;;
9106;SDS011;4589;48.690;8.952;2024-02-14T01:39:12;8.30;;;7.10;;
9106;SDS011;4589;48.690;8.952;2024-02-14T01:41:38;12.13;;;8.10;;
9106;SDS011;4589;48.690;8.952;2024-02-14T01:44:04;10.90;;;7.67;;
9106;SDS011;4589;48.690;8.952;2024-02-14T01:46:30;13.10;;;8.17;;
9106;SDS011;4589;48.690;8.952;2024-02-14T01:48:56;13.57;;;8.67;;
9106;SDS011;4589;48.690;8.952;2024-02-14T01:51:23;12.30;;;8.60;;
9106;SDS011;4589;48.690;8.952;2024-02-14T01:53:50;10.37;;;7.90;;
9106;SDS011;4589;48.690;8.952;2024-02-14T01:56:16;11.97;;;8.30;;
9106;SDS011;4589;48.690;8.952;2024-02-14T01:58:43;13.57;;;8.40;;
9106;SDS011;4589;48.690;8.952;2024-02-14T02:01:10;14.10;;;8.50;;
9106;SDS011;4589;48.690;8.952;2024-02-14T02:03:37;10.90;;;7.90;;
9106;SDS011;4589;48.690;8.952;2024-02-14T02:06:05;17.17;;;7.53;;
9106;SDS011;4589;48.690;8.952;2024-02-14T02:08:35;11.83;;;8.27;;
9106;SDS011;4589;48.690;8.952;2024-02-14T02:11:02;15.37;;;8.47;;
9106;SDS011;4589;48.690;8.952;2024-02-14T02:13:29;10.97;;;8.50;;
9106;SDS011;4589;48.690;8.952;2024-02-14T02:15:55;11.10;;;8.37;;
9106;SDS011;4589;48.690;8.952;2024-02-14T02:18:21;13.20;;;8.70;;
9106;SDS011;4589;48.690;8.952;2024-02-14T02:20:48;11.70;;;8.10;;
9106;SDS011;4589;48.690;8.952;2024-02-14T02:23:14;11.23;;;8.23;;
9106;SDS011;4589;48.690;8.952;2024-02-14T02:25:41;14.93;;;8.87;;
9106;SDS011;4589;48.690;8.952;2024-02-14T02:28:08;10.50;;;8.60;;
9106;SDS011;4589;48.690;8.952;2024-02-14T02:30:56;11.97;;;8.10;;
9106;SDS011;4589;48.690;8.952;2024-02-14T02:33:24;15.93;;;8.00;;
9106;SDS011;4589;48.690;8.952;2024-02-14T02:35:51;12.00;;;8.63;;
9106;SDS011;4589;48.690;8.952;2024-02-14T02:38:17;14.33;;;8.90;;
9106;SDS011;4589;48.690;8.952;2024-02-14T02:40:45;14.20;;;8.87;;
9106;SDS011;4589;48.690;8.952;2024-02-14T02:43:11;18.33;;;9.50;;
9106;SDS011;4589;48.690;8.952;2024-02-14T02:45:38;11.80;;;9.17;;
9106;SDS011;4589;48.690;8.952;2024-02-14T02:48:05;18.10;;;8.80;;
9106;SDS011;4589;48.690;8.952;2024-02-14T02:50:32;10.47;;;7.63;;
9106;SDS011;4589;48.690;8.952;2024-02-14T02:52:58;12.60;;;8.90;;
9106;SDS011;4589;48.690;8.952;2024-02-14T02:55:25;13.57;;;8.47;;
9106;SDS011;4589;48.690;8.952;2024-02-14T02:57:52;12.87;;;9.13;;
9106;SDS011;4589;48.690;8.952;2024-02-14T03:00:18;10.97;;;8.70;;
9106;SDS011;4589;48.690;8.952;2024-02-14T03:02:46;18.20;;;9.67;;
9106;SDS011;4589;48.690;8.952;2024-02-14T03:05:12;13.83;;;8.83;;
9106;SDS011;4589;48.690;8.952;2024-02-14T03:07:48;13.03;;;8.73;;
9106;SDS011;4589;48.690;8.952;2024-02-14T03:10:16;13.87;;;8.40;;
9106;SDS011;4589;48.690;8.952;2024-02-14T03:12:49;15.70;;;8.50;;
9106;SDS011;4589;48.690;8.952;2024-02-14T03:15:19;11.63;;;8.30;;
9106;SDS011;4589;48.690;8.952;2024-02-14T03:17:47;13.03;;;8.60;;
9106;SDS011;4589;48.690;8.952;2024-02-14T03:20:17;13.27;;;8.90;;
9106;SDS011;4589;48.690;8.952;2024-02-14T03:22:48;13.20;;;7.97;;
9106;SDS011;4589;48.690;8.952;2024-02-14T03:25:18;12.60;;;7.67;;
9106;SDS011;4589;48.690;8.952;2024-02-14T03:27:46;11.63;;;7.97;;
9106;SDS011;4589;48.690;8.952;2024-02-14T03:30:14;14.50;;;7.30;;
9106;SDS011;4589;48.690;8.952;2024-02-14T03:32:43;17.60;;;7.97;;
9106;SDS011;4589;48.690;8.952;2024-02-14T03:35:10;11.30;;;7.00;;
9106;SDS011;4589;48.690;8.952;2024-02-14T03:37:38;7.57;;;6.38;;
9106;SDS011;4589;48.690;8.952;2024-02-14T03:40:04;12.02;;;7.43;;
9106;SDS011;4589;48.690;8.952;2024-02-14T03:42:32;11.03;;;7.33;;
9106;SDS011;4589;48.690;8.952;2024-02-14T03:44:58;10.73;;;7.57;;
9106;SDS011;4589;48.690;8.952;2024-02-14T03:47:34;12.23;;;8.63;;
9106;SDS011;4589;48.690;8.952;2024-02-14T03:50:00;12.60;;;7.40;;
9106;SDS011;4589;48.690;8.952;2024-02-14T03:52:29;9.60;;;7.80;;
9106;SDS011;4589;48.690;8.952;2024-02-14T03:54:57;11.33;;;7.20;;
9106;SDS011;4589;48.690;8.952;2024-02-14T03:57:24;11.27;;;7.27;;
9106;SDS011;4589;48.690;8.952;2024-02-14T03:59:53;10.00;;;7.03;;
9106;SDS011;4589;48.690;8.952;2024-02-14T04:02:20;11.30;;;7.37;;
9106;SDS011;4589;48.690;8.952;2024-02-14T04:04:48;16.38;;;8.43;;
9106;SDS011;4589;48.690;8.952;2024-02-14T04:07:14;13.60;;;9.02;;
9106;SDS011;4589;48.690;8.952;2024-02-14T04:09:41;11.97;;;7.80;;
9106;SDS011;4589;48.690;8.952;2024-02-14T04:12:08;8.90;;;7.40;;
9106;SDS011;4589;48.690;8.952;2024-02-14T04:14:35;13.57;;;7.00;;
9106;SDS011;4589;48.690;8.952;2024-02-14T04:17:03;11.03;;;7.63;;
9106;SDS011;4589;48.690;8.952;2024-02-14T04:19:29;10.32;;;7.90;;
9106;SDS011;4589;48.690;8.952;2024-02-14T04:21:55;9.80;;;7.50;;
9106;SDS011;4589;48.690;8.952;2024-02-14T04:24:22;12.18;;;6.95;;
9106;SDS011;4589;48.690;8.952;2024-02-14T04:26:48;20.40;;;7.87;;
9106;SDS011;4589;48.690;8.952;2024-02-14T04:29:14;12.07;;;7.33;;
9106;SDS011;4589;48.690;8.952;2024-02-14T04:31:40;9.20;;;7.47;;
9106;SDS011;4589;48.690;8.952;2024-02-14T04:34:08;11.60;;;7.37;;
9106;SDS011;4589;48.690;8.952;2024-02-14T04:36:35;10.63;;;6.37;;
9106;SDS011;4589;48.690;8.952;2024-02-14T04:39:02;10.90;;;6.53;;
9106;SDS011;4589;48.690;8.952;2024-02-14T04:41:28;8.00;;;6.13;;
9106;SDS011;4589;48.690;8.952;2024-02-14T04:43:55;8.57;;;5.57;;
9106;SDS011;4589;48.690;8.952;2024-02-14T04:46:22;8.80;;;5.80;;
9106;SDS011;4589;48.690;8.952;2024-02-14T04:48:48;6.80;;;5.07;;
9106;SDS011;4589;48.690;8.952;2024-02-14T04:51:15;8.67;;;5.87;;
9106;SDS011;4589;48.690;8.952;2024-02-14T04:53:41;5.83;;;4.80;;
9106;SDS011;4589;48.690;8.952;2024-02-14T04:56:07;9.53;;;6.00;;
9106;SDS011;4589;48.690;8.952;2024-02-14T04:58:34;6.87;;;4.53;;
9106;SDS011;4589;48.690;8.952;2024-02-14T05:01:01;7.87;;;5.03;;
9106;SDS011;4589;48.690;8.952;2024-02-14T05:03:27;11.77;;;4.50;;
9106;SDS011;4589;48.690;8.952;2024-02-14T05:05:53;10.13;;;5.10;;
9106;SDS011;4589;48.690;8.952;2024-02-14T05:08:21;8.27;;;4.90;;
9106;SDS011;4589;48.690;8.952;2024-02-14T05:10:47;9.63;;;4.87;;
9106;SDS011;4589;48.690;8.952;2024-02-14T05:13:13;8.70;;;5.20;;
9106;SDS011;4589;48.690;8.952;2024-02-14T05:15:41;6.67;;;5.03;;
9106;SDS011;4589;48.690;8.952;2024-02-14T05:18:07;9.83;;;4.57;;
9106;SDS011;4589;48.690;8.952;2024-02-14T05:20:34;5.40;;;4.63;;
9106;SDS011;4589;48.690;8.952;2024-02-14T05:23:00;9.93;;;4.40;;
9106;SDS011;4589;48.690;8.952;2024-02-14T05:25:27;7.90;;;3.97;;
9106;SDS011;4589;48.690;8.952;2024-02-14T05:27:54;4.10;;;3.70;;
9106;SDS011;4589;48.690;8.952;2024-02-14T05:30:20;3.60;;;3.30;;
9106;SDS011;4589;48.690;8.952;2024-02-14T05:32:47;5.17;;;3.77;;
9106;SDS011;4589;48.690;8.952;2024-02-14T05:35:13;7.30;;;3.30;;
9106;SDS011;4589;48.690;8.952;2024-02-14T05:37:39;6.47;;;3.50;;
9106;SDS011;4589;48.690;8.952;2024-02-14T05:40:06;5.80;;;3.00;;
9106;SDS011;4589;48.690;8.952;2024-02-14T05:42:32;3.87;;;3.40;;
9106;SDS011;4589;48.690;8.952;2024-02-14T05:44:59;7.53;;;4.50;;
9106;SDS011;4589;48.690;8.952;2024-02-14T05:47:28;6.73;;;3.43;;
9106;SDS011;4589;48.690;8.952;2024-02-14T05:49:55;4.90;;;3.60;;
9106;SDS011;4589;48.690;8.952;2024-02-14T05:52:21;5.30;;;3.50;;
9106;SDS011;4589;48.690;8.952;2024-02-14T05:54:48;3.40;;;3.10;;
9106;SDS011;4589;48.690;8.952;2024-02-14T05:57:14;5.70;;;3.20;;
9106;SDS011;4589;48.690;8.952;2024-02-14T05:59:41;6.23;;;3.20;;
9106;SDS011;4589;48.690;8.952;2024-02-14T06:02:07;9.87;;;3.90;;
9106;SDS011;4589;48.690;8.952;2024-02-14T06:04:35;4.90;;;3.73;;
9106;SDS011;4589;48.690;8.952;2024-02-14T06:07:02;7.00;;;3.37;;
9106;SDS011;4589;48.690;8.952;2024-02-14T06:10:11;6.67;;;4.07;;
9106;SDS011;4589;48.690;8.952;2024-02-14T06:12:58;10.93;;;3.90;;
9106;SDS011;4589;48.690;8.952;2024-02-14T06:15:26;6.30;;;3.83;;
9106;SDS011;4589;48.690;8.952;2024-02-14T06:18:00;4.40;;;3.23;;
9106;SDS011;4589;48.690;8.952;2024-02-14T06:20:59;6.00;;;3.63;;
9106;SDS011;4589;48.690;8.952;2024-02-14T06:24:50;6.70;;;3.80;;
9106;SDS011;4589;48.690;8.952;2024-02-14T06:28:27;4.00;;;3.60;;
9106;SDS011;4589;48.690;8.952;2024-02-14T06:31:05;4.00;;;3.50;;
9106;SDS011;4589;48.690;8.952;2024-02-14T06:33:32;5.03;;;3.80;;
9106;SDS011;4589;48.690;8.952;2024-02-14T06:35:59;6.33;;;4.03;;
9106;SDS011;4589;48.690;8.952;2024-02-14T06:38:29;5.70;;;3.73;;
9106;SDS011;4589;48.690;8.952;2024-02-14T06:40:57;6.63;;;3.80;;
9106;SDS011;4589;48.690;8.952;2024-02-14T06:43:24;6.87;;;4.10;;
9106;SDS011;4589;48.690;8.952;2024-02-14T06:45:50;6.03;;;4.40;;
9106;SDS011;4589;48.690;8.952;2024-02-14T06:48:19;5.63;;;4.33;;
9106;SDS011;4589;48.690;8.952;2024-02-14T06:50:48;7.50;;;3.83;;
9106;SDS011;4589;48.690;8.952;2024-02-14T06:53:15;5.43;;;3.97;;
9106;SDS011;4589;48.690;8.952;2024-02-14T06:55:41;4.80;;;3.80;;
9106;SDS011;4589;48.690;8.952;2024-02-14T06:58:10;9.90;;;4.07;;
9106;SDS011;4589;48.690;8.952;2024-02-14T07:00:36;9.23;;;6.03;;
9106;SDS011;4589;48.690;8.952;2024-02-14T07:03:03;7.30;;;4.50;;
9106;SDS011;4589;48.690;8.952;2024-02-14T07:05:29;5.70;;;3.60;;
9106;SDS011;4589;48.690;8.952;2024-02-14T07:07:56;6.87;;;4.07;;
9106;SDS011;4589;48.690;8.952;2024-02-14T07:10:22;9.90;;;5.40;;
9106;SDS011;4589;48.690;8.952;2024-02-14T07:12:48;8.93;;;6.27;;
9106;SDS011;4589;48.690;8.952;2024-02-14T07:15:16;11.20;;;6.10;;
9106;SDS011;4589;48.690;8.952;2024-02-14T07:17:42;6.40;;;4.30;;
9106;SDS011;4589;48.690;8.952;2024-02-14T07:20:09;10.33;;;3.93;;
9106;SDS011;4589;48.690;8.952;2024-02-14T07:22:35;3.07;;;2.77;;
9106;SDS011;4589;48.690;8.952;2024-02-14T07:25:02;6.40;;;3.50;;
9106;SDS011;4589;48.690;8.952;2024-02-14T07:27:30;6.03;;;4.00;;
9106;SDS011;4589;48.690;8.952;2024-02-14T07:29:56;4.10;;;3.43;;
9106;SDS011;4589;48.690;8.952;2024-02-14T07:32:22;4.83;;;3.30;;
9106;SDS011;4589;48.690;8.952;2024-02-14T07:34:48;6.60;;;3.30;;
9106;SDS011;4589;48.690;8.952;2024-02-14T07:37:17;4.93;;;3.63;;
9106;SDS011;4589;48.690;8.952;2024-02-14T07:39:44;4.00;;;3.20;;
9106;SDS011;4589;48.690;8.952;2024-02-14T07:42:18;5.73;;;3.93;;
9106;SDS011;4589;48.690;8.952;2024-02-14T07:44:55;3.67;;;3.37;;
9106;SDS011;4589;48.690;8.952;2024-02-14T07:51:47;7.50;;;3.93;;
9106;SDS011;4589;48.690;8.952;2024-02-14T07:55:13;6.20;;;4.00;;
9106;SDS011;4589;48.690;8.952;2024-02-14T08:04:56;5.93;;;3.23;;
9106;SDS011;4589;48.690;8.952;2024-02-14T08:15:12;5.87;;;3.57;;
9106;SDS011;4589;48.690;8.952;2024-02-14T08:22:00;3.03;;;2.50;;
9106;SDS011;4589;48.690;8.952;2024-02-14T08:24:26;3.23;;;2.90;;
9106;SDS011;4589;48.690;8.952;2024-02-14T08:26:52;6.30;;;3.03;;
9106;SDS011;4589;48.690;8.952;2024-02-14T08:29:18;4.37;;;2.77;;
9106;SDS011;4589;48.690;8.952;2024-02-14T08:31:44;3.40;;;2.90;;
9106;SDS011;4589;48.690;8.952;2024-02-14T08:34:10;4.37;;;3.10;;
9106;SDS011;4589;48.690;8.952;2024-02-14T08:36:35;6.33;;;3.30;;
9106;SDS011;4589;48.690;8.952;2024-02-14T08:39:09;2.90;;;2.57;;
9106;SDS011;4589;48.690;8.952;2024-02-14T08:41:38;4.73;;;3.00;;
9106;SDS011;4589;48.690;8.952;2024-02-14T08:44:06;3.13;;;2.20;;
9106;SDS011;4589;48.690;8.952;2024-02-14T08:46:32;4.33;;;2.37;;
9106;SDS011;4589;48.690;8.952;2024-02-14T08:49:00;8.30;;;2.70;;
9106;SDS011;4589;48.690;8.952;2024-02-14T08:51:33;4.03;;;2.40;;
9106;SDS011;4589;48.690;8.952;2024-02-14T08:53:59;4.70;;;2.70;;
9106;SDS011;4589;48.690;8.952;2024-02-14T08:56:25;4.57;;;2.47;;
9106;SDS011;4589;48.690;8.952;2024-02-14T08:58:51;5.00;;;2.83;;
9106;SDS011;4589;48.690;8.952;2024-02-14T09:01:17;5.83;;;2.70;;
9106;SDS011;4589;48.690;8.952;2024-02-14T09:03:42;2.40;;;2.20;;
9106;SDS011;4589;48.690;8.952;2024-02-14T09:06:12;4.57;;;2.20;;
9106;SDS011;4589;48.690;8.952;2024-02-14T09:08:43;3.00;;;2.70;;
9106;SDS011;4589;48.690;8.952;2024-02-14T09:11:08;2.93;;;2.23;;
9106;SDS011;4589;48.690;8.952;2024-02-14T09:13:34;5.47;;;2.43;;
9106;SDS011;4589;48.690;8.952;2024-02-14T09:16:00;3.00;;;2.60;;
9106;SDS011;4589;48.690;8.952;2024-02-14T09:18:26;4.23;;;1.73;;
9106;SDS011;4589;48.690;8.952;2024-02-14T09:20:52;5.13;;;2.50;;
9106;SDS011;4589;48.690;8.952;2024-02-14T09:23:18;6.40;;;3.20;;
9106;SDS011;4589;48.690;8.952;2024-02-14T09:25:46;6.20;;;2.93;;
9106;SDS011;4589;48.690;8.952;2024-02-14T09:28:12;6.17;;;2.97;;
9106;SDS011;4589;48.690;8.952;2024-02-14T09:30:39;3.30;;;2.50;;
9106;SDS011;4589;48.690;8.952;2024-02-14T09:33:04;3.43;;;2.40;;
9106;SDS011;4589;48.690;8.952;2024-02-14T09:35:30;4.33;;;2.57;;
9106;SDS011;4589;48.690;8.952;2024-02-14T09:37:56;4.43;;;2.70;;
9106;SDS011;4589;48.690;8.952;2024-02-14T09:40:22;3.13;;;2.43;;
9106;SDS011;4589;48.690;8.952;2024-02-14T09:42:51;3.47;;;2.50;;
9106;SDS011;4589;48.690;8.952;2024-02-14T09:45:19;4.80;;;2.80;;
9106;SDS011;4589;48.690;8.952;2024-02-14T09:47:46;7.10;;;2.63;;
9106;SDS011;4589;48.690;8.952;2024-02-14T09:50:12;7.43;;;3.10;;
9106;SDS011;4589;48.690;8.952;2024-02-14T09:52:38;2.70;;;2.37;;
9106;SDS011;4589;48.690;8.952;2024-02-14T09:55:05;3.57;;;2.57;;
9106;SDS011;4589;48.690;8.952;2024-02-14T09:57:31;2.17;;;1.97;;
9106;SDS011;4589;48.690;8.952;2024-02-14T09:59:58;2.33;;;1.80;;
9106;SDS011;4589;48.690;8.952;2024-02-14T10:02:25;3.80;;;2.30;;
9106;SDS011;4589;48.690;8.952;2024-02-14T10:04:51;3.00;;;2.00;;
9106;SDS011;4589;48.690;8.952;2024-02-14T10:07:17;3.50;;;2.23;;
9106;SDS011;4589;48.690;8.952;2024-02-14T10:09:43;3.57;;;2.10;;
9106;SDS011;4589;48.690;8.952;2024-02-14T10:12:10;5.83;;;2.43;;
9106;SDS011;4589;48.690;8.952;2024-02-14T10:14:36;2.90;;;1.90;;
9106;SDS011;4589;48.690;8.952;2024-02-14T10:17:03;2.13;;;1.67;;
9106;SDS011;4589;48.690;8.952;2024-02-14T10:19:29;4.33;;;2.20;;
9106;SDS011;4589;48.690;8.952;2024-02-14T10:21:59;3.73;;;2.03;;
9106;SDS011;4589;48.690;8.952;2024-02-14T10:24:26;2.50;;;1.90;;
9106;SDS011;4589;48.690;8.952;2024-02-14T10:26:52;2.13;;;1.87;;
9106;SDS011;4589;48.690;8.952;2024-02-14T10:29:19;2.43;;;1.97;;
9106;SDS011;4589;48.690;8.952;2024-02-14T10:31:45;2.90;;;1.70;;
9106;SDS011;4589;48.690;8.952;2024-02-14T10:34:12;4.10;;;2.30;;
9106;SDS011;4589;48.690;8.952;2024-02-14T10:36:37;3.83;;;2.10;;
9106;SDS011;4589;48.690;8.952;2024-02-14T10:39:05;2.40;;;1.60;;
9106;SDS011;4589;48.690;8.952;2024-02-14T10:41:32;1.70;;;1.60;;
9106;SDS011;4589;48.690;8.952;2024-02-14T10:44:03;4.33;;;2.70;;
9106;SDS011;4589;48.690;8.952;2024-02-14T10:46:31;1.57;;;1.20;;
9106;SDS011;4589;48.690;8.952;2024-02-14T10:49:02;1.83;;;1.10;;
9106;SDS011;4589;48.690;8.952;2024-02-14T10:51:30;2.17;;;1.50;;
9106;SDS011;4589;48.690;8.952;2024-02-14T10:53:57;1.80;;;1.40;;
9106;SDS011;4589;48.690;8.952;2024-02-14T10:56:25;3.33;;;1.30;;
9106;SDS011;4589;48.690;8.952;2024-02-14T10:58:55;1.90;;;1.33;;
9106;SDS011;4589;48.690;8.952;2024-02-14T11:01:25;2.67;;;1.50;;
9106;SDS011;4589;48.690;8.952;2024-02-14T11:03:55;3.93;;;1.30;;
9106;SDS011;4589;48.690;8.952;2024-02-14T11:06:23;1.47;;;1.20;;
9106;SDS011;4589;48.690;8.952;2024-02-14T11:09:01;2.03;;;1.30;;
9106;SDS011;4589;48.690;8.952;2024-02-14T11:11:35;1.30;;;1.20;;
9106;SDS011;4589;48.690;8.952;2024-02-14T11:14:02;1.60;;;1.33;;
9106;SDS011;4589;48.690;8.952;2024-02-14T11:16:30;1.40;;;1.30;;
9106;SDS011;4589;48.690;8.952;2024-02-14T11:19:10;2.13;;;1.47;;
9106;SDS011;4589;48.690;8.952;2024-02-14T11:21:41;1.50;;;1.33;;
9106;SDS011;4589;48.690;8.952;2024-02-14T11:24:09;1.50;;;1.20;;
9106;SDS011;4589;48.690;8.952;2024-02-14T11:29:20;2.13;;;1.40;;
9106;SDS011;4589;48.690;8.952;2024-02-14T11:31:46;1.80;;;1.30;;
9106;SDS011;4589;48.690;8.952;2024-02-14T11:34:16;1.10;;;0.90;;
9106;SDS011;4589;48.690;8.952;2024-02-14T11:36:42;3.10;;;1.33;;
9106;SDS011;4589;48.690;8.952;2024-02-14T11:39:09;1.73;;;1.47;;
9106;SDS011;4589;48.690;8.952;2024-02-14T11:41:37;1.20;;;1.10;;
9106;SDS011;4589;48.690;8.952;2024-02-14T11:44:06;1.53;;;1.20;;
9106;SDS011;4589;48.690;8.952;2024-02-14T11:46:32;3.43;;;1.30;;
9106;SDS011;4589;48.690;8.952;2024-02-14T11:49:00;1.70;;;1.27;;
9106;SDS011;4589;48.690;8.952;2024-02-14T11:51:28;1.70;;;1.40;;
9106;SDS011;4589;48.690;8.952;2024-02-14T11:53:55;4.37;;;1.40;;
9106;SDS011;4589;48.690;8.952;2024-02-14T11:56:22;1.97;;;1.30;;
9106;SDS011;4589;48.690;8.952;2024-02-14T11:58:48;1.40;;;1.10;;
9106;SDS011;4589;48.690;8.952;2024-02-14T12:01:16;3.20;;;1.53;;
9106;SDS011;4589;48.690;8.952;2024-02-14T12:03:42;2.77;;;1.13;;
9106;SDS011;4589;48.690;8.952;2024-02-14T12:06:09;1.43;;;1.33;;
9106;SDS011;4589;48.690;8.952;2024-02-14T12:08:35;2.33;;;1.50;;
9106;SDS011;4589;48.690;8.952;2024-02-14T12:11:01;3.13;;;1.20;;
9106;SDS011;4589;48.690;8.952;2024-02-14T12:13:27;1.57;;;1.30;;
9106;SDS011;4589;48.690;8.952;2024-02-14T12:15:57;1.87;;;1.57;;
9106;SDS011;4589;48.690;8.952;2024-02-14T12:18:23;2.10;;;1.10;;
9106;SDS011;4589;48.690;8.952;2024-02-14T12:20:48;1.30;;;1.03;;
9106;SDS011;4589;48.690;8.952;2024-02-14T12:23:17;1.30;;;1.10;;
9106;SDS011;4589;48.690;8.952;2024-02-14T12:25:43;2.13;;;1.20;;
9106;SDS011;4589;48.690;8.952;2024-02-14T12:28:20;1.33;;;1.00;;
9106;SDS011;4589;48.690;8.952;2024-02-14T12:30:47;1.20;;;0.93;;
9106;SDS011;4589;48.690;8.952;2024-02-14T12:33:15;2.47;;;0.93;;
9106;SDS011;4589;48.690;8.952;2024-02-14T12:35:44;1.20;;;1.00;;
9106;SDS011;4589;48.690;8.952;2024-02-14T12:38:11;2.13;;;1.20;;
9106;SDS011;4589;48.690;8.952;2024-02-14T12:40:38;1.17;;;0.90;;
9106;SDS011;4589;48.690;8.952;2024-02-14T12:43:06;1.30;;;1.00;;
9106;SDS011;4589;48.690;8.952;2024-02-14T12:45:32;1.00;;;0.83;;
9106;SDS011;4589;48.690;8.952;2024-02-14T12:47:58;4.40;;;1.30;;
9106;SDS011;4589;48.690;8.952;2024-02-14T12:50:24;1.10;;;0.90;;
9106;SDS011;4589;48.690;8.952;2024-02-14T12:52:50;1.00;;;0.90;;
9106;SDS011;4589;48.690;8.952;2024-02-14T12:55:16;2.03;;;1.30;;
9106;SDS011;4589;48.690;8.952;2024-02-14T12:57:43;1.97;;;1.20;;
9106;SDS011;4589;48.690;8.952;2024-02-14T13:00:10;1.40;;;1.20;;
9106;SDS011;4589;48.690;8.952;2024-02-14T13:02:36;1.47;;;1.20;;
9106;SDS011;4589;48.690;8.952;2024-02-14T13:05:03;1.27;;;1.00;;
9106;SDS011;4589;48.690;8.952;2024-02-14T13:07:30;1.20;;;0.90;;
9106;SDS011;4589;48.690;8.952;2024-02-14T13:09:55;1.77;;;1.00;;
9106;SDS011;4589;48.690;8.952;2024-02-14T13:12:21;1.93;;;1.00;;
9106;SDS011;4589;48.690;8.952;2024-02-14T13:14:47;1.13;;;0.83;;
9106;SDS011;4589;48.690;8.952;2024-02-14T13:17:13;1.00;;;0.80;;
9106;SDS011;4589;48.690;8.952;2024-02-14T13:19:39;1.40;;;0.90;;
9106;SDS011;4589;48.690;8.952;2024-02-14T13:22:07;2.00;;;1.00;;
9106;SDS011;4589;48.690;8.952;2024-02-14T13:24:33;1.27;;;1.10;;
9106;SDS011;4589;48.690;8.952;2024-02-14T13:26:59;2.33;;;1.00;;
9106;SDS011;4589;48.690;8.952;2024-02-14T13:29:25;1.20;;;1.00;;
9106;SDS011;4589;48.690;8.952;2024-02-14T13:31:51;1.00;;;0.80;;
9106;SDS011;4589;48.690;8.952;2024-02-14T13:34:17;1.00;;;0.80;;
9106;SDS011;4589;48.690;8.952;2024-02-14T13:36:44;1.53;;;1.00;;
9106;SDS011;4589;48.690;8.952;2024-02-14T13:39:13;1.23;;;1.00;;
9106;SDS011;4589;48.690;8.952;2024-02-14T13:41:40;1.17;;;0.80;;
9106;SDS011;4589;48.690;8.952;2024-02-14T13:44:09;1.00;;;0.80;;
9106;SDS011;4589;48.690;8.952;2024-02-14T13:46:34;1.07;;;0.80;;
9106;SDS011;4589;48.690;8.952;2024-02-14T13:49:00;1.37;;;1.00;;
9106;SDS011;4589;48.690;8.952;2024-02-14T13:51:26;2.07;;;1.10;;
9106;SDS011;4589;48.690;8.952;2024-02-14T13:53:52;1.23;;;1.00;;
9106;SDS011;4589;48.690;8.952;2024-02-14T13:56:18;1.20;;;1.00;;
9106;SDS011;4589;48.690;8.952;2024-02-14T13:58:47;1.60;;;1.10;;
9106;SDS011;4589;48.690;8.952;2024-02-14T14:01:14;5.00;;;1.60;;
9106;SDS011;4589;48.690;8.952;2024-02-14T14:03:40;2.50;;;1.20;;
9106;SDS011;4589;48.690;8.952;2024-02-14T14:06:06;1.40;;;1.20;;
9106;SDS011;4589;48.690;8.952;2024-02-14T14:08:35;1.73;;;1.13;;
9106;SDS011;4589;48.690;8.952;2024-02-14T14:11:02;3.50;;;1.20;;
9106;SDS011;4589;48.690;8.952;2024-02-14T14:13:28;4.53;;;1.40;;
9106;SDS011;4589;48.690;8.952;2024-02-14T14:15:56;1.77;;;1.10;;
9106;SDS011;4589;48.690;8.952;2024-02-14T14:18:22;1.10;;;1.00;;
9106;SDS011;4589;48.690;8.952;2024-02-14T14:20:48;2.23;;;1.50;;
9106;SDS011;4589;48.690;8.952;2024-02-14T14:23:14;2.47;;;1.20;;
9106;SDS011;4589;48.690;8.952;2024-02-14T14:25:40;1.33;;;1.23;;
9106;SDS011;4589;48.690;8.952;2024-02-14T14:28:06;2.17;;;1.00;;
9106;SDS011;4589;48.690;8.952;2024-02-14T14:30:34;1.80;;;1.20;;
9106;SDS011;4589;48.690;8.952;2024-02-14T14:33:00;3.00;;;1.20;;
9106;SDS011;4589;48.690;8.952;2024-02-14T14:35:26;3.30;;;1.13;;
9106;SDS011;4589;48.690;8.952;2024-02-14T14:37:51;1.80;;;1.20;;
9106;SDS011;4589;48.690;8.952;2024-02-14T14:40:17;2.30;;;1.30;;
9106;SDS011;4589;48.690;8.952;2024-02-14T14:42:43;1.67;;;1.10;;
9106;SDS011;4589;48.690;8.952;2024-02-14T14:45:09;2.40;;;1.30;;
9106;SDS011;4589;48.690;8.952;2024-02-14T14:47:34;1.80;;;1.23;;
9106;SDS011;4589;48.690;8.952;2024-02-14T14:50:00;1.87;;;1.00;;
9106;SDS011;4589;48.690;8.952;2024-02-14T14:52:26;1.13;;;1.00;;
9106;SDS011;4589;48.690;8.952;2024-02-14T14:54:52;1.73;;;1.10;;
9106;SDS011;4589;48.690;8.952;2024-02-14T14:57:18;1.50;;;1.20;;
9106;SDS011;4589;48.690;8.952;2024-02-14T14:59:44;1.90;;;1.40;;
9106;SDS011;4589;48.690;8.952;2024-02-14T15:02:10;1.50;;;1.20;;
9106;SDS011;4589;48.690;8.952;2024-02-14T15:04:36;1.93;;;1.20;;
9106;SDS011;4589;48.690;8.952;2024-02-14T15:07:02;1.20;;;1.10;;
9106;SDS011;4589;48.690;8.952;2024-02-14T15:09:28;1.60;;;1.27;;
9106;SDS011;4589;48.690;8.952;2024-02-14T15:11:54;1.50;;;1.17;;
9106;SDS011;4589;48.690;8.952;2024-02-14T15:14:21;2.17;;;1.53;;
9106;SDS011;4589;48.690;8.952;2024-02-14T15:16:47;1.50;;;1.00;;
9106;SDS011;4589;48.690;8.952;2024-02-14T15:19:13;1.30;;;1.20;;
9106;SDS011;4589;48.690;8.952;2024-02-14T15:21:39;1.83;;;1.00;;
9106;SDS011;4589;48.690;8.952;2024-02-14T15:24:06;1.93;;;1.30;;
9106;SDS011;4589;48.690;8.952;2024-02-14T15:26:31;2.70;;;1.07;;
9106;SDS011;4589;48.690;8.952;2024-02-14T15:29:14;1.47;;;0.90;;
9106;SDS011;4589;48.690;8.952;2024-02-14T15:32:05;2.33;;;1.30;;
9106;SDS011;4589;48.690;8.952;2024-02-14T15:34:50;1.27;;;1.00;;
9106;SDS011;4589;48.690;8.952;2024-02-14T15:37:16;1.23;;;1.10;;
9106;SDS011;4589;48.690;8.952;2024-02-14T15:39:42;1.60;;;1.07;;
9106;SDS011;4589;48.690;8.952;2024-02-14T15:42:08;1.13;;;1.00;;